createdAt,value
2022-09-12T00:00:12.005Z,22.63
2022-09-12T00:01:13.298Z,23.58
2022-09-12T00:01:55.139Z,23.13
2022-09-12T00:02:36.952Z,24.63
2022-09-12T00:03:18.587Z,22.60
2022-09-12T00:04:01.968Z,21.92
2022-09-12T00:04:43.587Z,21.95
2022-09-12T00:05:26.478Z,22.40
2022-09-12T00:06:20.427Z,24.38
2022-09-12T00:07:04.205Z,22.02
2022-09-12T00:07:45.885Z,22.80
2022-09-12T00:08:27.561Z,22.05
2022-09-12T00:09:12.067Z,21.42
2022-09-12T00:09:53.691Z,19.98
2022-09-12T00:10:41.378Z,24.13
2022-09-12T00:11:23.606Z,24.83
2022-09-12T00:12:05.706Z,22.17
2022-09-12T00:12:47.437Z,23.42
2022-09-12T00:13:29.051Z,24.33
2022-09-12T00:14:17.484Z,22.58
2022-09-12T00:14:59.131Z,22.75
2022-09-12T00:15:42.432Z,22.73
2022-09-12T00:16:26.035Z,19.95
2022-09-12T00:17:07.682Z,21.83
2022-09-12T00:17:49.336Z,22.08
2022-09-12T00:18:32.003Z,21.50
2022-09-12T00:19:13.950Z,22.70
2022-09-12T00:19:56.022Z,24.75
2022-09-12T00:20:42.813Z,25.92
2022-09-12T00:21:24.856Z,23.63
2022-09-12T00:22:06.516Z,26.65
2022-09-12T00:22:48.186Z,24.70
2022-09-12T00:23:31.425Z,27.25
2022-09-12T00:24:13.096Z,22.45
2022-09-12T00:24:54.725Z,22.30
2022-09-12T00:25:42.466Z,24.00
2022-09-12T00:26:24.530Z,24.10
2022-09-12T00:27:06.350Z,24.50
2022-09-12T00:27:48.009Z,24.92
2022-09-12T00:28:29.636Z,22.20
2022-09-12T00:29:16.663Z,25.20
2022-09-12T00:29:58.323Z,23.98
2022-09-12T00:30:50.027Z,23.55
2022-09-12T00:31:32.176Z,25.00
2022-09-12T00:32:13.891Z,23.67
2022-09-12T00:32:55.519Z,28.60
2022-09-12T00:33:37.189Z,28.98
2022-09-12T00:34:18.834Z,23.77
2022-09-12T00:35:02.692Z,22.83
2022-09-12T00:35:53.036Z,23.42
2022-09-12T00:36:37.037Z,26.13
2022-09-12T00:37:18.709Z,22.83
2022-09-12T00:38:00.335Z,22.40
2022-09-12T00:38:43.293Z,23.15
2022-09-12T00:39:24.950Z,25.27
2022-09-12T00:40:07.206Z,25.13
2022-09-12T00:40:49.453Z,23.38
2022-09-12T00:41:34.856Z,22.98
2022-09-12T00:42:16.519Z,23.27
2022-09-12T00:42:59.014Z,23.48
2022-09-12T00:43:42.954Z,24.75
2022-09-12T00:44:24.597Z,24.38
2022-09-12T00:45:06.785Z,24.60
2022-09-12T00:45:48.503Z,26.10
2022-09-12T00:46:55.487Z,25.80
2022-09-12T00:47:37.732Z,22.80
2022-09-12T00:48:30.860Z,22.58
2022-09-12T00:49:20.765Z,26.97
2022-09-12T00:50:12.519Z,23.40
2022-09-12T00:50:54.243Z,24.85
2022-09-12T00:51:37.492Z,25.08
2022-09-12T00:52:25.413Z,25.50
2022-09-12T00:53:08.585Z,20.70
2022-09-12T00:53:52.902Z,23.50
2022-09-12T00:54:49.883Z,23.75
2022-09-12T00:55:45.401Z,26.15
2022-09-12T00:56:28.041Z,25.30
2022-09-12T00:57:11.933Z,24.55
2022-09-12T00:57:58.765Z,26.10
2022-09-12T00:58:53.911Z,25.63
2022-09-12T00:59:41.401Z,23.50
2022-09-12T01:00:25.558Z,24.73
2022-09-12T01:01:07.330Z,24.02
2022-09-12T01:01:51.608Z,25.05
2022-09-12T01:02:33.437Z,26.05
2022-09-12T01:03:19.008Z,24.08
2022-09-12T01:04:01.837Z,24.63
2022-09-12T01:04:44.565Z,23.83
2022-09-12T01:05:28.263Z,24.98
2022-09-12T01:06:27.035Z,23.70
2022-09-12T01:07:09.542Z,25.77
2022-09-12T01:07:52.312Z,26.13
2022-09-12T01:08:37.389Z,24.60
2022-09-12T01:09:22.686Z,25.90
2022-09-12T01:10:06.210Z,27.58
2022-09-12T01:10:48.873Z,24.15
2022-09-12T01:11:32.671Z,24.10
2022-09-12T01:12:15.911Z,26.60
2022-09-12T01:13:00.657Z,25.27
2022-09-12T01:13:43.946Z,23.33
2022-09-12T01:14:25.738Z,24.38
2022-09-12T01:15:08.010Z,27.92
2022-09-12T01:15:49.654Z,29.30
2022-09-12T01:16:31.485Z,28.35
2022-09-12T01:17:20.167Z,26.35
2022-09-12T01:18:40.354Z,25.50
2022-09-12T01:19:22.021Z,25.50
2022-09-12T01:20:34.505Z,23.60
2022-09-12T01:21:34.878Z,25.30
2022-09-12T01:22:36.645Z,23.08
2022-09-12T01:24:02.646Z,24.00
2022-09-12T01:25:07.683Z,27.17
2022-09-12T01:26:08.125Z,27.25
2022-09-12T01:27:15.461Z,24.70
2022-09-12T01:28:18.417Z,23.88
2022-09-12T01:29:21.877Z,22.95
2022-09-12T01:30:21.776Z,24.95
2022-09-12T01:31:17.815Z,28.48
2022-09-12T01:32:13.671Z,24.50
2022-09-12T01:33:47.643Z,24.35
2022-09-12T01:34:29.230Z,25.95
2022-09-12T01:35:23.807Z,25.35
2022-09-12T01:36:52.841Z,23.90
2022-09-12T01:37:41.768Z,27.83
2022-09-12T01:38:23.342Z,25.08
2022-09-12T01:39:51.080Z,25.50
2022-09-12T01:40:49.130Z,27.65
2022-09-12T01:41:54.517Z,26.33
2022-09-12T01:42:41.990Z,28.25
2022-09-12T01:43:26.636Z,25.42
2022-09-12T01:44:19.024Z,24.40
2022-09-12T01:45:23.193Z,27.80
2022-09-12T01:46:18.063Z,24.42
2022-09-12T01:47:12.921Z,25.65
2022-09-12T01:48:03.133Z,24.77
2022-09-12T01:49:02.201Z,27.38
2022-09-12T01:49:56.143Z,25.95
2022-09-12T01:50:52.534Z,27.98
2022-09-12T01:52:07.770Z,24.30
2022-09-12T01:52:57.141Z,23.52
2022-09-12T01:53:44.219Z,26.83
2022-09-12T01:54:36.548Z,27.83
2022-09-12T01:55:27.433Z,26.15
2022-09-12T01:56:15.514Z,26.60
2022-09-12T01:57:01.582Z,26.60
2022-09-12T01:58:03.021Z,25.73
2022-09-12T01:58:57.496Z,23.88
2022-09-12T01:59:54.655Z,27.70
2022-09-12T02:01:01.810Z,29.35
2022-09-12T02:01:54.895Z,27.98
2022-09-12T02:02:52.914Z,25.27
2022-09-12T02:03:44.955Z,27.10
2022-09-12T02:04:34.421Z,26.52
2022-09-12T02:05:28.959Z,27.73
2022-09-12T02:06:23.532Z,26.73
2022-09-12T02:07:35.894Z,28.98
2022-09-12T02:08:22.184Z,24.30
2022-09-12T02:09:09.973Z,26.77
2022-09-12T02:10:02.244Z,26.88
2022-09-12T02:10:49.995Z,26.27
2022-09-12T02:11:35.388Z,24.45
2022-09-12T02:12:23.005Z,26.15
2022-09-12T02:13:16.792Z,25.80
2022-09-12T02:14:09.270Z,28.85
2022-09-12T02:14:57.230Z,27.33
2022-09-12T02:15:46.107Z,24.08
2022-09-12T02:16:40.842Z,27.98
2022-09-12T02:17:26.218Z,22.80
2022-09-12T02:18:12.290Z,24.58
2022-09-12T02:18:59.839Z,25.90
2022-09-12T02:19:48.030Z,26.48
2022-09-12T02:20:49.215Z,28.42
2022-09-12T02:21:33.009Z,27.15
2022-09-12T02:22:19.798Z,28.63
2022-09-12T02:23:03.659Z,27.15
2022-09-12T02:23:49.017Z,27.85
2022-09-12T02:24:39.465Z,28.02
2022-09-12T02:25:22.118Z,26.83
2022-09-12T02:26:11.017Z,27.58
2022-09-12T02:27:06.052Z,28.80
2022-09-12T02:27:50.546Z,31.85
2022-09-12T02:28:38.074Z,27.80
2022-09-12T02:29:19.719Z,31.00
2022-09-12T02:30:01.629Z,28.30
2022-09-12T02:31:11.448Z,27.05
2022-09-12T02:32:04.630Z,29.25
2022-09-12T02:33:12.601Z,27.05
2022-09-12T02:34:22.058Z,26.10
2022-09-12T02:35:10.985Z,27.92
2022-09-12T02:36:23.957Z,25.42
2022-09-12T02:37:21.218Z,27.05
2022-09-12T02:38:24.547Z,28.55
2022-09-12T02:39:06.551Z,26.08
2022-09-12T02:39:48.443Z,26.35
2022-09-12T02:40:31.007Z,28.52
2022-09-12T02:41:15.973Z,29.20
2022-09-12T02:42:01.804Z,24.45
2022-09-12T02:42:43.590Z,25.90
2022-09-12T02:43:25.322Z,24.85
2022-09-12T02:44:07.050Z,28.73
2022-09-12T02:44:50.039Z,28.17
2022-09-12T02:45:34.324Z,26.30
2022-09-12T02:46:25.269Z,28.40
2022-09-12T02:47:14.117Z,24.42
2022-09-12T02:48:08.428Z,28.13
2022-09-12T02:48:50.142Z,25.55
2022-09-12T02:49:31.903Z,26.63
2022-09-12T02:50:14.169Z,27.13
2022-09-12T02:50:56.691Z,27.65
2022-09-12T02:51:38.579Z,28.55
2022-09-12T02:52:20.446Z,25.92
2022-09-12T02:53:04.925Z,25.85
2022-09-12T02:53:46.598Z,28.67
2022-09-12T02:54:28.896Z,27.58
2022-09-12T02:55:11.634Z,24.25
2022-09-12T02:55:53.590Z,25.17
2022-09-12T02:56:35.397Z,25.25
2022-09-12T02:57:22.651Z,26.20
2022-09-12T02:58:08.626Z,24.40
2022-09-12T02:58:50.512Z,25.17
2022-09-12T02:59:32.163Z,25.27
2022-09-12T03:00:14.286Z,24.67
2022-09-12T03:01:30.069Z,23.67
2022-09-12T03:02:11.731Z,26.45
2022-09-12T03:03:11.979Z,25.27
2022-09-12T03:04:29.774Z,26.20
2022-09-12T03:05:23.361Z,23.02
2022-09-12T03:06:13.915Z,23.08
2022-09-12T03:07:18.198Z,26.75
2022-09-12T03:08:24.930Z,24.17
2022-09-12T03:09:19.134Z,25.67
2022-09-12T03:10:22.921Z,25.20
2022-09-12T03:11:07.203Z,23.85
2022-09-12T03:12:05.593Z,22.95
2022-09-12T03:13:12.518Z,22.88
2022-09-12T03:14:10.562Z,22.83
2022-09-12T03:15:19.714Z,24.37
2022-09-12T03:16:28.055Z,22.58
2022-09-12T03:17:57.168Z,27.33
2022-09-12T03:19:05.066Z,24.45
2022-09-12T03:19:59.018Z,23.38
2022-09-12T03:20:59.534Z,25.33
2022-09-12T03:21:53.317Z,24.60
2022-09-12T03:23:04.283Z,21.65
2022-09-12T03:24:08.218Z,22.95
2022-09-12T03:24:56.115Z,21.55
2022-09-12T03:25:45.333Z,22.27
2022-09-12T03:26:42.527Z,22.20
2022-09-12T03:27:30.058Z,21.98
2022-09-12T03:28:15.530Z,23.30
2022-09-12T03:28:59.130Z,24.90
2022-09-12T03:29:41.411Z,23.08
2022-09-12T03:30:23.210Z,23.08
2022-09-12T03:31:16.759Z,23.73
2022-09-12T03:32:01.881Z,25.35
2022-09-12T03:32:49.234Z,26.35
2022-09-12T03:33:30.850Z,27.23
2022-09-12T03:34:13.068Z,24.40
2022-09-12T03:34:54.691Z,26.45
2022-09-12T03:35:36.353Z,29.52
2022-09-12T03:36:23.002Z,24.33
2022-09-12T03:37:05.316Z,23.17
2022-09-12T03:37:48.266Z,22.95
2022-09-12T03:38:29.893Z,23.58
2022-09-12T03:39:11.530Z,25.15
2022-09-12T03:39:53.168Z,25.55
2022-09-12T03:40:35.788Z,26.63
2022-09-12T03:41:20.750Z,23.08
2022-09-12T03:42:02.384Z,23.67
2022-09-12T03:42:44.042Z,22.80
2022-09-12T03:43:25.795Z,24.38
2022-09-12T03:44:07.869Z,22.60
2022-09-12T03:44:49.501Z,25.15
2022-09-12T03:45:31.299Z,23.73
2022-09-12T03:46:14.689Z,23.67
2022-09-12T03:46:56.354Z,24.08
2022-09-12T03:47:38.016Z,24.20
2022-09-12T03:48:21.196Z,28.25
2022-09-12T03:49:02.986Z,25.58
2022-09-12T03:49:44.614Z,21.52
2022-09-12T03:50:26.394Z,22.83
2022-09-12T03:51:09.960Z,21.48
2022-09-12T03:51:51.642Z,24.80
2022-09-12T03:52:36.504Z,25.02
2022-09-12T03:53:18.187Z,21.90
2022-09-12T03:53:59.874Z,24.13
2022-09-12T03:54:41.562Z,24.35
2022-09-12T03:55:23.269Z,24.10
2022-09-12T03:56:09.810Z,21.00
2022-09-12T03:56:51.442Z,22.08
2022-09-12T03:57:33.128Z,23.15
2022-09-12T03:58:14.757Z,20.63
2022-09-12T03:58:56.589Z,23.58
2022-09-12T03:59:38.345Z,21.63
2022-09-12T04:00:20.105Z,22.20
2022-09-12T04:01:07.219Z,22.13
2022-09-12T04:01:48.928Z,21.38
2022-09-12T04:02:33.249Z,23.63
2022-09-12T04:03:15.100Z,24.63
2022-09-12T04:03:56.731Z,24.77
2022-09-12T04:04:38.756Z,27.10
2022-09-12T04:05:20.412Z,23.38
2022-09-12T04:06:02.041Z,21.97
2022-09-12T04:06:44.069Z,22.52
2022-09-12T04:07:25.767Z,23.25
2022-09-12T04:08:07.474Z,23.65
2022-09-12T04:08:50.803Z,27.75
2022-09-12T04:09:32.436Z,24.70
2022-09-12T04:10:16.238Z,23.85
2022-09-12T04:11:24.464Z,23.17
2022-09-12T04:12:06.591Z,25.30
2022-09-12T04:12:48.229Z,25.77
2022-09-12T04:13:29.883Z,22.25
2022-09-12T04:14:11.532Z,24.20
2022-09-12T04:14:53.158Z,22.80
2022-09-12T04:15:34.834Z,24.48
2022-09-12T04:16:17.512Z,22.65
2022-09-12T04:16:59.516Z,24.38
2022-09-12T04:17:41.162Z,27.35
2022-09-12T04:18:22.793Z,25.60
2022-09-12T04:19:06.552Z,23.73
2022-09-12T04:19:48.186Z,25.80
2022-09-12T04:20:29.905Z,24.13
2022-09-12T04:21:17.242Z,22.27
2022-09-12T04:21:58.923Z,23.15
2022-09-12T04:22:40.622Z,22.52
2022-09-12T04:23:22.598Z,25.92
2022-09-12T04:24:04.374Z,23.27
2022-09-12T04:24:46.013Z,21.30
2022-09-12T04:25:28.292Z,23.02
2022-09-12T04:26:10.591Z,22.83
2022-09-12T04:26:52.283Z,23.20
2022-09-12T04:27:34.172Z,23.17
2022-09-12T04:28:15.876Z,21.65
2022-09-12T04:28:58.138Z,20.42
2022-09-12T04:29:39.768Z,22.55
2022-09-12T04:30:21.526Z,21.88
2022-09-12T04:31:09.351Z,22.27
2022-09-12T04:31:51.047Z,22.40
2022-09-12T04:32:32.694Z,20.92
2022-09-12T04:33:14.696Z,20.50
2022-09-12T04:34:00.714Z,20.92
2022-09-12T04:34:43.538Z,21.50
2022-09-12T04:35:25.470Z,23.13
2022-09-12T04:36:10.296Z,22.27
2022-09-12T04:36:51.923Z,22.20
2022-09-12T04:37:33.590Z,22.55
2022-09-12T04:38:15.267Z,24.17
2022-09-12T04:38:56.955Z,20.48
2022-09-12T04:39:38.757Z,21.27
2022-09-12T04:40:20.871Z,20.85
2022-09-12T04:41:15.398Z,20.63
2022-09-12T04:41:57.019Z,18.65
2022-09-12T04:42:38.641Z,19.33
2022-09-12T04:43:20.272Z,19.85
2022-09-12T04:44:05.622Z,20.88
2022-09-12T04:44:48.563Z,21.45
2022-09-12T04:45:30.668Z,21.95
2022-09-12T04:46:15.276Z,21.27
2022-09-12T04:46:57.167Z,23.73
2022-09-12T04:47:38.931Z,20.65
2022-09-12T04:48:20.581Z,21.70
2022-09-12T04:49:02.648Z,21.25
2022-09-12T04:49:44.259Z,20.92
2022-09-12T04:50:26.242Z,19.80
2022-09-12T04:51:08.037Z,20.60
2022-09-12T04:51:52.211Z,21.92
2022-09-12T04:52:33.869Z,20.92
2022-09-12T04:53:15.483Z,17.93
2022-09-12T04:54:03.437Z,20.15
2022-09-12T04:54:47.729Z,22.20
2022-09-12T04:55:29.437Z,27.95
2022-09-12T04:56:12.117Z,23.15
2022-09-12T04:56:54.890Z,19.73
2022-09-12T04:57:36.671Z,19.77
2022-09-12T04:58:18.296Z,19.15
2022-09-12T04:59:01.365Z,21.25
2022-09-12T04:59:43.211Z,21.27
2022-09-12T05:00:24.882Z,19.42
2022-09-12T05:01:17.559Z,18.02
2022-09-12T05:01:59.508Z,21.17
2022-09-12T05:02:44.314Z,20.00
2022-09-12T05:03:25.937Z,19.38
2022-09-12T05:04:09.619Z,18.23
2022-09-12T05:04:52.606Z,20.77
2022-09-12T05:05:36.860Z,19.88
2022-09-12T05:06:21.283Z,19.77
2022-09-12T05:07:05.743Z,21.90
2022-09-12T05:07:47.375Z,19.50
2022-09-12T05:08:29.330Z,22.50
2022-09-12T05:09:14.053Z,22.70
2022-09-12T05:09:55.696Z,19.83
2022-09-12T05:10:38.363Z,21.83
2022-09-12T05:11:25.569Z,21.95
2022-09-12T05:12:12.144Z,18.65
2022-09-12T05:12:53.813Z,17.63
2022-09-12T05:13:35.523Z,17.30
2022-09-12T05:14:17.178Z,18.95
2022-09-12T05:14:58.857Z,21.50
2022-09-12T05:15:40.558Z,20.92
2022-09-12T05:16:23.498Z,18.70
2022-09-12T05:17:05.992Z,17.00
2022-09-12T05:17:50.864Z,19.00
2022-09-12T05:18:36.467Z,21.65
2022-09-12T05:19:18.414Z,23.65
2022-09-12T05:20:00.665Z,21.10
2022-09-12T05:20:42.297Z,18.77
2022-09-12T05:21:25.094Z,19.20
2022-09-12T05:22:06.869Z,17.88
2022-09-12T05:22:48.521Z,19.92
2022-09-12T05:23:30.893Z,19.42
2022-09-12T05:24:12.614Z,19.70
2022-09-12T05:24:54.349Z,21.10
2022-09-12T05:25:35.983Z,18.77
2022-09-12T05:26:18.997Z,18.23
2022-09-12T05:27:00.719Z,19.70
2022-09-12T05:27:46.398Z,19.33
2022-09-12T05:28:35.584Z,18.08
2022-09-12T05:29:17.358Z,17.83
2022-09-12T05:29:59.063Z,17.80
2022-09-12T05:30:40.744Z,19.05
2022-09-12T05:31:25.123Z,18.15
2022-09-12T05:32:06.828Z,17.90
2022-09-12T05:32:49.598Z,19.20
2022-09-12T05:33:32.267Z,17.95
2022-09-12T05:34:14.146Z,18.00
2022-09-12T05:34:55.910Z,18.13
2022-09-12T05:35:38.301Z,18.73
2022-09-12T05:36:25.079Z,19.20
2022-09-12T05:37:06.774Z,17.25
2022-09-12T05:37:49.384Z,18.15
2022-09-12T05:38:31.124Z,16.70
2022-09-12T05:39:12.784Z,16.05
2022-09-12T05:39:54.548Z,18.15
2022-09-12T05:40:36.196Z,17.73
2022-09-12T05:41:25.745Z,16.83
2022-09-12T05:42:07.542Z,20.52
2022-09-12T05:42:49.182Z,20.63
2022-09-12T05:43:30.853Z,17.70
2022-09-12T05:44:14.172Z,17.08
2022-09-12T05:44:55.819Z,22.30
2022-09-12T05:45:37.512Z,19.58
2022-09-12T05:46:28.688Z,20.65
2022-09-12T05:47:12.317Z,18.33
2022-09-12T05:47:54.313Z,17.35
2022-09-12T05:48:37.310Z,20.10
2022-09-12T05:49:19.012Z,18.92
2022-09-12T05:50:00.641Z,18.90
2022-09-12T05:50:42.425Z,17.60
2022-09-12T05:51:31.636Z,22.77
2022-09-12T05:52:13.391Z,19.17
2022-09-12T05:52:55.082Z,18.88
2022-09-12T05:53:37.972Z,20.95
2022-09-12T05:54:20.662Z,20.20
2022-09-12T05:55:02.633Z,19.60
2022-09-12T05:55:44.269Z,18.65
2022-09-12T05:56:28.337Z,21.25
2022-09-12T05:57:10.136Z,18.38
2022-09-12T05:57:52.005Z,19.73
2022-09-12T05:58:35.655Z,22.90
2022-09-12T05:59:19.988Z,19.10
2022-09-12T06:00:02.141Z,18.52
2022-09-12T06:00:43.774Z,17.55
2022-09-12T06:01:27.304Z,17.50
2022-09-12T06:02:11.015Z,18.27
2022-09-12T06:02:53.433Z,19.00
2022-09-12T06:03:37.280Z,19.17
2022-09-12T06:04:18.966Z,17.25
2022-09-12T06:05:03.019Z,18.73
2022-09-12T06:05:47.643Z,17.33
2022-09-12T06:06:35.918Z,16.33
2022-09-12T06:07:17.559Z,16.65
2022-09-12T06:07:59.170Z,19.10
2022-09-12T06:08:43.813Z,17.83
2022-09-12T06:09:25.689Z,16.23
2022-09-12T06:10:07.540Z,18.73
2022-09-12T06:10:49.496Z,18.90
2022-09-12T06:11:33.291Z,17.75
2022-09-12T06:12:14.912Z,18.77
2022-09-12T06:12:56.544Z,20.85
2022-09-12T06:13:42.554Z,20.05
2022-09-12T06:14:24.262Z,18.05
2022-09-12T06:15:07.987Z,20.20
2022-09-12T06:15:50.049Z,20.33
2022-09-12T06:16:35.641Z,18.70
2022-09-12T06:17:17.494Z,16.15
2022-09-12T06:17:59.131Z,17.65
2022-09-12T06:18:41.608Z,19.35
2022-09-12T06:19:24.965Z,19.50
2022-09-12T06:20:07.122Z,20.95
2022-09-12T06:20:48.834Z,19.33
2022-09-12T06:21:35.009Z,18.08
2022-09-12T06:22:17.973Z,17.65
2022-09-12T06:22:59.650Z,16.15
2022-09-12T06:23:41.630Z,16.38
2022-09-12T06:24:23.322Z,16.95
2022-09-12T06:25:05.293Z,19.77
2022-09-12T06:25:50.094Z,20.30
2022-09-12T06:26:31.761Z,18.42
2022-09-12T06:27:13.487Z,17.77
2022-09-12T06:27:55.190Z,18.27
2022-09-12T06:28:39.999Z,20.45
2022-09-12T06:29:21.926Z,18.13
2022-09-12T06:30:04.023Z,17.42
2022-09-12T06:30:45.748Z,17.25
2022-09-12T06:31:30.463Z,18.58
2022-09-12T06:32:12.098Z,19.15
2022-09-12T06:32:53.778Z,17.92
2022-09-12T06:33:37.413Z,18.30
2022-09-12T06:34:19.922Z,20.08
2022-09-12T06:35:01.638Z,19.20
2022-09-12T06:35:43.457Z,14.95
2022-09-12T06:36:31.531Z,17.67
2022-09-12T06:37:13.180Z,18.52
2022-09-12T06:37:55.318Z,19.75
2022-09-12T06:38:38.231Z,18.30
2022-09-12T06:39:22.184Z,17.48
2022-09-12T06:40:04.119Z,18.02
2022-09-12T06:40:48.459Z,18.50
2022-09-12T06:41:31.252Z,20.05
2022-09-12T06:42:14.772Z,19.73
2022-09-12T06:42:56.500Z,19.05
2022-09-12T06:43:39.731Z,17.92
2022-09-12T06:44:22.713Z,17.95
2022-09-12T06:45:04.640Z,18.80
2022-09-12T06:45:49.919Z,19.15
2022-09-12T06:46:31.670Z,18.20
2022-09-12T06:47:13.310Z,18.40
2022-09-12T06:47:55.547Z,20.27
2022-09-12T06:48:41.134Z,17.55
2022-09-12T06:49:23.517Z,19.77
2022-09-12T06:50:05.650Z,17.98
2022-09-12T06:51:02.077Z,18.25
2022-09-12T06:51:44.397Z,17.90
2022-09-12T06:52:29.193Z,20.25
2022-09-12T06:53:10.821Z,18.83
2022-09-12T06:53:55.746Z,18.60
2022-09-12T06:54:37.422Z,20.45
2022-09-12T06:55:21.734Z,21.35
2022-09-12T06:56:14.667Z,18.60
2022-09-12T06:56:56.286Z,17.55
2022-09-12T06:57:38.866Z,17.95
2022-09-12T06:58:20.518Z,17.60
2022-09-12T06:59:02.190Z,17.35
2022-09-12T06:59:43.893Z,16.80
2022-09-12T07:00:25.647Z,19.65
2022-09-12T07:01:13.429Z,20.50
2022-09-12T07:01:55.350Z,21.90
2022-09-12T07:02:37.124Z,22.15
2022-09-12T07:03:19.001Z,18.13
2022-09-12T07:04:03.808Z,18.80
2022-09-12T07:04:45.844Z,18.45
2022-09-12T07:05:28.081Z,19.10
2022-09-12T07:06:12.957Z,18.98
2022-09-12T07:06:54.605Z,18.15
2022-09-12T07:07:36.278Z,19.17
2022-09-12T07:08:17.914Z,16.95
2022-09-12T07:09:01.101Z,17.63
2022-09-12T07:09:42.818Z,19.83
2022-09-12T07:10:24.491Z,18.20
2022-09-12T07:11:26.133Z,19.98
2022-09-12T07:12:08.071Z,18.58
2022-09-12T07:12:49.703Z,17.83
2022-09-12T07:13:31.353Z,20.42
2022-09-12T07:14:14.356Z,21.65
2022-09-12T07:14:56.058Z,16.63
2022-09-12T07:15:39.486Z,17.52
2022-09-12T07:16:21.193Z,16.33
2022-09-12T07:17:02.884Z,16.30
2022-09-12T07:17:44.696Z,15.60
2022-09-12T07:18:27.209Z,16.90
2022-09-12T07:19:09.706Z,17.63
2022-09-12T07:19:54.131Z,19.63
2022-09-12T07:20:39.256Z,19.33
2022-09-12T07:21:21.313Z,20.30
2022-09-12T07:22:03.049Z,16.25
2022-09-12T07:22:44.699Z,16.98
2022-09-12T07:23:26.331Z,22.02
2022-09-12T07:24:10.158Z,19.63
2022-09-12T07:24:53.586Z,19.23
2022-09-12T07:25:35.288Z,17.52
2022-09-12T07:26:17.100Z,17.08
2022-09-12T07:26:58.858Z,15.90
2022-09-12T07:27:40.574Z,18.15
2022-09-12T07:28:22.332Z,20.88
2022-09-12T07:29:32.295Z,17.55
2022-09-12T07:30:07.778Z,19.80
2022-09-12T07:30:49.438Z,17.85
2022-09-12T07:31:31.180Z,18.95
2022-09-12T07:32:13.350Z,19.42
2022-09-12T07:32:56.838Z,18.05
2022-09-12T07:33:39.627Z,20.02
2022-09-12T07:34:21.319Z,19.95
2022-09-12T07:35:03.197Z,19.38
2022-09-12T07:35:44.849Z,18.88
2022-09-12T07:36:26.553Z,19.70
2022-09-12T07:37:08.261Z,18.85
2022-09-12T07:37:49.924Z,20.23
2022-09-12T07:38:31.675Z,18.48
2022-09-12T07:39:13.446Z,17.42
2022-09-12T07:39:55.630Z,18.63
2022-09-12T07:40:37.283Z,19.90
2022-09-12T07:41:20.950Z,21.38
2022-09-12T07:42:02.828Z,19.40
2022-09-12T07:42:44.623Z,18.00
2022-09-12T07:43:26.310Z,17.48
2022-09-12T07:44:08.043Z,20.00
2022-09-12T07:44:50.921Z,18.85
2022-09-12T07:45:32.590Z,18.50
2022-09-12T07:46:14.901Z,20.30
2022-09-12T07:46:56.654Z,19.23
2022-09-12T07:47:38.358Z,17.58
2022-09-12T07:48:20.034Z,18.20
2022-09-12T07:49:01.823Z,18.23
2022-09-12T07:49:44.028Z,20.25
2022-09-12T07:50:25.745Z,19.95
2022-09-12T07:51:10.370Z,16.13
2022-09-12T07:51:52.039Z,19.48
2022-09-12T07:52:33.666Z,18.10
2022-09-12T07:53:15.917Z,16.50
2022-09-12T07:53:58.299Z,17.90
2022-09-12T07:54:40.036Z,16.52
2022-09-12T07:55:22.555Z,19.48
2022-09-12T07:56:05.484Z,21.17
2022-09-12T07:56:47.183Z,18.58
2022-09-12T07:57:29.056Z,16.30
2022-09-12T07:58:10.786Z,19.98
2022-09-12T07:58:52.439Z,17.85
2022-09-12T07:59:52.052Z,17.67
2022-09-12T08:00:37.746Z,17.40
2022-09-12T08:01:23.210Z,16.90
2022-09-12T08:02:04.952Z,18.45
2022-09-12T08:02:51.967Z,17.35
2022-09-12T08:03:33.722Z,15.98
2022-09-12T08:04:15.842Z,19.58
2022-09-12T08:04:57.492Z,18.92
2022-09-12T08:05:39.160Z,17.80
2022-09-12T08:06:25.221Z,16.42
2022-09-12T08:07:06.918Z,17.65
2022-09-12T08:07:49.705Z,19.55
2022-09-12T08:08:31.470Z,17.80
2022-09-12T08:09:15.278Z,16.30
2022-09-12T08:09:57.539Z,16.55
2022-09-12T08:10:39.306Z,21.33
2022-09-12T08:11:22.499Z,17.08
2022-09-12T08:12:04.382Z,16.80
2022-09-12T08:12:46.040Z,17.98
2022-09-12T08:13:30.923Z,20.77
2022-09-12T08:14:12.648Z,20.00
2022-09-12T08:14:54.414Z,20.27
2022-09-12T08:15:36.146Z,16.00
2022-09-12T08:16:22.078Z,20.92
2022-09-12T08:17:03.797Z,17.65
2022-09-12T08:17:45.525Z,17.48
2022-09-12T08:18:29.371Z,19.55
2022-09-12T08:19:12.019Z,17.88
2022-09-12T08:19:53.683Z,21.42
2022-09-12T08:20:35.372Z,20.67
2022-09-12T08:21:20.051Z,18.77
2022-09-12T08:22:02.812Z,20.50
2022-09-12T08:22:44.654Z,17.52
2022-09-12T08:23:28.600Z,17.48
2022-09-12T08:24:13.309Z,20.95
2022-09-12T08:24:54.950Z,19.23
2022-09-12T08:25:36.671Z,16.65
2022-09-12T08:26:18.424Z,20.50
2022-09-12T08:27:00.079Z,17.98
2022-09-12T08:27:43.079Z,18.80
2022-09-12T08:28:25.850Z,20.98
2022-09-12T08:29:07.490Z,20.88
2022-09-12T08:29:49.281Z,20.15
2022-09-12T08:30:31.008Z,19.35
2022-09-12T08:31:16.577Z,21.45
2022-09-12T08:31:58.530Z,18.63
2022-09-12T08:32:40.233Z,16.75
2022-09-12T08:33:22.385Z,18.02
2022-09-12T08:34:05.639Z,18.02
2022-09-12T08:34:47.322Z,19.83
2022-09-12T08:35:29.006Z,18.95
2022-09-12T08:36:12.080Z,20.63
2022-09-12T08:36:54.571Z,17.88
2022-09-12T08:37:36.214Z,17.88
2022-09-12T08:38:19.611Z,20.27
2022-09-12T08:39:06.637Z,20.55
2022-09-12T08:39:48.438Z,18.33
2022-09-12T08:40:30.392Z,16.52
2022-09-12T08:41:31.092Z,16.73
2022-09-12T08:42:26.641Z,19.30
2022-09-12T08:43:33.120Z,16.67
2022-09-12T08:44:45.835Z,18.00
2022-09-12T08:45:36.876Z,18.95
2022-09-12T08:46:27.195Z,16.90
2022-09-12T08:47:08.853Z,19.67
2022-09-12T08:47:53.291Z,18.48
2022-09-12T08:48:36.123Z,17.70
2022-09-12T08:49:37.677Z,16.73
2022-09-12T08:50:22.278Z,23.02
2022-09-12T08:51:05.168Z,17.65
2022-09-12T08:51:47.259Z,18.80
2022-09-12T08:52:48.201Z,17.63
2022-09-12T08:53:31.592Z,17.67
2022-09-12T08:54:24.002Z,17.40
2022-09-12T08:55:13.505Z,15.13
2022-09-12T08:56:00.205Z,15.98
2022-09-12T08:56:42.094Z,19.38
2022-09-12T08:57:24.355Z,15.93
2022-09-12T08:58:22.701Z,16.60
2022-09-12T08:59:04.411Z,18.67
2022-09-12T08:59:46.518Z,17.88
2022-09-12T09:00:40.670Z,16.50
2022-09-12T09:01:40.671Z,17.33
2022-09-12T09:02:42.090Z,14.57
2022-09-12T09:03:35.797Z,16.58
2022-09-12T09:05:01.602Z,16.58
2022-09-12T09:06:07.282Z,15.90
2022-09-12T09:07:15.078Z,16.73
2022-09-12T09:08:00.267Z,19.38
2022-09-12T09:09:04.896Z,17.98
2022-09-12T09:10:15.001Z,17.98
2022-09-12T09:11:03.506Z,16.42
2022-09-12T09:12:17.077Z,18.15
2022-09-12T09:13:10.157Z,18.13
2022-09-12T09:14:16.187Z,17.95
2022-09-12T09:15:33.886Z,16.23
2022-09-12T09:16:30.846Z,14.55
2022-09-12T09:17:20.130Z,15.65
2022-09-12T09:18:04.823Z,18.10
2022-09-12T09:18:48.351Z,16.27
2022-09-12T09:19:37.474Z,14.40
2022-09-12T09:20:27.328Z,15.13
2022-09-12T09:21:21.945Z,15.25
2022-09-12T09:22:14.406Z,15.50
2022-09-12T09:23:05.174Z,16.17
2022-09-12T09:23:51.048Z,16.08
2022-09-12T09:24:43.653Z,15.93
2022-09-12T09:25:44.424Z,15.20
2022-09-12T09:26:56.459Z,15.77
2022-09-12T09:27:46.881Z,15.32
2022-09-12T09:28:37.678Z,14.18
2022-09-12T09:29:22.757Z,14.65
2022-09-12T09:30:05.409Z,15.02
2022-09-12T09:30:47.124Z,15.52
2022-09-12T09:31:37.217Z,15.20
2022-09-12T09:32:34.323Z,13.43
2022-09-12T09:33:22.417Z,13.38
2022-09-12T09:34:13.849Z,14.88
2022-09-12T09:34:55.609Z,13.40
2022-09-12T09:35:37.859Z,15.63
2022-09-12T09:36:46.760Z,13.20
2022-09-12T09:38:02.129Z,11.97
2022-09-12T09:38:49.384Z,12.10
2022-09-12T09:39:45.501Z,14.05
2022-09-12T09:40:33.958Z,18.45
2022-09-12T09:41:56.067Z,15.82
2022-09-12T09:42:40.872Z,12.23
2022-09-12T09:43:27.445Z,12.20
2022-09-12T09:44:09.567Z,12.90
2022-09-12T09:44:54.350Z,11.80
2022-09-12T09:45:37.510Z,12.38
2022-09-12T09:46:19.381Z,16.37
2022-09-12T09:47:01.612Z,16.30
2022-09-12T09:47:53.107Z,12.30
2022-09-12T09:48:43.864Z,16.05
2022-09-12T09:49:29.278Z,13.15
2022-09-12T09:50:16.552Z,15.13
2022-09-12T09:51:00.622Z,14.60
2022-09-12T09:51:42.901Z,12.30
2022-09-12T09:52:32.057Z,12.88
2022-09-12T09:53:22.650Z,11.10
2022-09-12T09:54:54.828Z,11.90
2022-09-12T09:55:42.965Z,12.82
2022-09-12T09:56:36.237Z,12.70
2022-09-12T09:57:36.115Z,11.52